sensor_id;sensor_type;location;lat;lon;timestamp;temperature;humidity
14877;DHT22;69691;48.172;17.070;2024-03-17T00:00:24;12.70;83.10
14877;DHT22;69691;48.172;17.070;2024-03-17T00:02:50;12.60;82.90
14877;DHT22;69691;48.172;17.070;2024-03-17T00:05:17;12.50;82.80
14877;DHT22;69691;48.172;17.070;2024-03-17T00:07:44;12.50;82.60
14877;DHT22;69691;48.172;17.070;2024-03-17T00:10:10;12.40;82.30
14877;DHT22;69691;48.172;17.070;2024-03-17T00:12:36;12.30;82.80
14877;DHT22;69691;48.172;17.070;2024-03-17T00:15:04;12.30;82.00
14877;DHT22;69691;48.172;17.070;2024-03-17T00:17:30;12.20;81.90
14877;DHT22;69691;48.172;17.070;2024-03-17T00:19:56;12.10;81.80
14877;DHT22;69691;48.172;17.070;2024-03-17T00:22:22;12.10;81.60
14877;DHT22;69691;48.172;17.070;2024-03-17T00:24:48;12.10;81.30
14877;DHT22;69691;48.172;17.070;2024-03-17T00:27:14;12.20;81.00
14877;DHT22;69691;48.172;17.070;2024-03-17T00:29:39;12.10;80.50
14877;DHT22;69691;48.172;17.070;2024-03-17T00:32:06;12.10;80.30
14877;DHT22;69691;48.172;17.070;2024-03-17T00:34:32;12.00;80.30
14877;DHT22;69691;48.172;17.070;2024-03-17T00:36:58;11.90;80.40
14877;DHT22;69691;48.172;17.070;2024-03-17T00:39:28;11.70;80.50
14877;DHT22;69691;48.172;17.070;2024-03-17T00:41:54;11.70;80.90
14877;DHT22;69691;48.172;17.070;2024-03-17T00:44:19;11.60;81.00
14877;DHT22;69691;48.172;17.070;2024-03-17T00:46:46;11.50;81.10
14877;DHT22;69691;48.172;17.070;2024-03-17T00:49:12;11.40;81.40
14877;DHT22;69691;48.172;17.070;2024-03-17T00:51:38;11.30;81.60
14877;DHT22;69691;48.172;17.070;2024-03-17T00:54:04;11.30;81.90
14877;DHT22;69691;48.172;17.070;2024-03-17T00:56:30;11.20;82.20
14877;DHT22;69691;48.172;17.070;2024-03-17T00:58:56;11.10;82.50
14877;DHT22;69691;48.172;17.070;2024-03-17T01:01:22;11.10;82.80
14877;DHT22;69691;48.172;17.070;2024-03-17T01:03:49;11.00;82.80
14877;DHT22;69691;48.172;17.070;2024-03-17T01:06:15;11.00;83.00
14877;DHT22;69691;48.172;17.070;2024-03-17T01:08:40;10.90;83.10
14877;DHT22;69691;48.172;17.070;2024-03-17T01:11:06;10.90;83.30
14877;DHT22;69691;48.172;17.070;2024-03-17T01:13:35;10.80;83.30
14877;DHT22;69691;48.172;17.070;2024-03-17T01:16:07;10.80;83.60
14877;DHT22;69691;48.172;17.070;2024-03-17T01:18:33;10.70;83.60
14877;DHT22;69691;48.172;17.070;2024-03-17T01:21:00;10.70;83.90
14877;DHT22;69691;48.172;17.070;2024-03-17T01:23:26;10.60;84.00
14877;DHT22;69691;48.172;17.070;2024-03-17T01:25:51;10.70;84.10
14877;DHT22;69691;48.172;17.070;2024-03-17T01:28:17;10.70;84.50
14877;DHT22;69691;48.172;17.070;2024-03-17T01:30:43;10.70;83.40
14877;DHT22;69691;48.172;17.070;2024-03-17T01:33:09;10.70;83.10
14877;DHT22;69691;48.172;17.070;2024-03-17T01:35:36;10.60;82.50
14877;DHT22;69691;48.172;17.070;2024-03-17T01:38:01;10.60;82.10
14877;DHT22;69691;48.172;17.070;2024-03-17T01:40:27;10.50;81.60
14877;DHT22;69691;48.172;17.070;2024-03-17T01:42:53;10.50;81.40
14877;DHT22;69691;48.172;17.070;2024-03-17T01:47:55;10.30;80.60
14877;DHT22;69691;48.172;17.070;2024-03-17T01:50:24;10.20;80.40
14877;DHT22;69691;48.172;17.070;2024-03-17T01:52:56;10.10;80.00
14877;DHT22;69691;48.172;17.070;2024-03-17T01:55:26;10.00;79.60
14877;DHT22;69691;48.172;17.070;2024-03-17T01:57:53;9.90;80.50
14877;DHT22;69691;48.172;17.070;2024-03-17T02:00:19;9.90;80.30
14877;DHT22;69691;48.172;17.070;2024-03-17T02:02:45;9.80;80.10
14877;DHT22;69691;48.172;17.070;2024-03-17T02:05:11;9.80;79.90
14877;DHT22;69691;48.172;17.070;2024-03-17T02:07:37;9.70;79.70
14877;DHT22;69691;48.172;17.070;2024-03-17T02:10:03;9.60;79.50
14877;DHT22;69691;48.172;17.070;2024-03-17T02:12:31;9.60;79.40
14877;DHT22;69691;48.172;17.070;2024-03-17T02:15:00;9.60;79.80
14877;DHT22;69691;48.172;17.070;2024-03-17T02:17:27;9.60;78.80
14877;DHT22;69691;48.172;17.070;2024-03-17T02:19:54;9.60;78.60
14877;DHT22;69691;48.172;17.070;2024-03-17T02:22:20;9.50;78.40
14877;DHT22;69691;48.172;17.070;2024-03-17T02:24:46;9.50;78.40
14877;DHT22;69691;48.172;17.070;2024-03-17T02:27:12;9.40;78.30
14877;DHT22;69691;48.172;17.070;2024-03-17T02:29:38;9.30;78.30
14877;DHT22;69691;48.172;17.070;2024-03-17T02:32:05;9.20;78.30
14877;DHT22;69691;48.172;17.070;2024-03-17T02:34:35;9.20;78.20
14877;DHT22;69691;48.172;17.070;2024-03-17T02:37:03;9.10;78.00
14877;DHT22;69691;48.172;17.070;2024-03-17T02:39:30;9.10;77.90
14877;DHT22;69691;48.172;17.070;2024-03-17T02:42:10;9.00;77.70
14877;DHT22;69691;48.172;17.070;2024-03-17T02:44:37;8.90;77.70
14877;DHT22;69691;48.172;17.070;2024-03-17T02:47:05;8.90;77.80
14877;DHT22;69691;48.172;17.070;2024-03-17T02:49:34;8.80;77.90
14877;DHT22;69691;48.172;17.070;2024-03-17T02:52:08;8.80;78.80
14877;DHT22;69691;48.172;17.070;2024-03-17T02:54:38;8.80;78.10
14877;DHT22;69691;48.172;17.070;2024-03-17T02:57:04;8.70;77.90
14877;DHT22;69691;48.172;17.070;2024-03-17T02:59:32;8.70;77.80
14877;DHT22;69691;48.172;17.070;2024-03-17T03:01:59;8.60;77.70
14877;DHT22;69691;48.172;17.070;2024-03-17T03:04:26;8.60;77.50
14877;DHT22;69691;48.172;17.070;2024-03-17T03:09:18;8.50;76.50
14877;DHT22;69691;48.172;17.070;2024-03-17T03:12:00;8.50;77.10
14877;DHT22;69691;48.172;17.070;2024-03-17T03:14:30;8.40;76.90
14877;DHT22;69691;48.172;17.070;2024-03-17T03:16:57;8.40;76.80
14877;DHT22;69691;48.172;17.070;2024-03-17T03:19:24;8.40;76.80
14877;DHT22;69691;48.172;17.070;2024-03-17T03:21:50;8.30;76.70
14877;DHT22;69691;48.172;17.070;2024-03-17T03:24:16;8.20;76.70
14877;DHT22;69691;48.172;17.070;2024-03-17T03:26:43;8.20;76.80
14877;DHT22;69691;48.172;17.070;2024-03-17T03:29:10;8.20;76.90
14877;DHT22;69691;48.172;17.070;2024-03-17T03:31:36;8.10;76.90
14877;DHT22;69691;48.172;17.070;2024-03-17T03:34:04;8.10;76.90
14877;DHT22;69691;48.172;17.070;2024-03-17T03:36:34;8.00;76.90
14877;DHT22;69691;48.172;17.070;2024-03-17T03:39:02;8.00;76.90
14877;DHT22;69691;48.172;17.070;2024-03-17T03:41:30;8.00;77.00
14877;DHT22;69691;48.172;17.070;2024-03-17T03:43:58;7.90;76.90
14877;DHT22;69691;48.172;17.070;2024-03-17T03:46:24;7.90;77.00
14877;DHT22;69691;48.172;17.070;2024-03-17T03:48:51;7.80;77.00
14877;DHT22;69691;48.172;17.070;2024-03-17T03:51:17;7.80;77.20
14877;DHT22;69691;48.172;17.070;2024-03-17T03:53:42;7.70;77.10
14877;DHT22;69691;48.172;17.070;2024-03-17T03:56:08;7.70;77.20
14877;DHT22;69691;48.172;17.070;2024-03-17T03:58:36;7.60;77.30
14877;DHT22;69691;48.172;17.070;2024-03-17T04:01:07;7.60;77.30
14877;DHT22;69691;48.172;17.070;2024-03-17T04:03:34;7.60;77.50
14877;DHT22;69691;48.172;17.070;2024-03-17T04:08:33;7.50;77.50
14877;DHT22;69691;48.172;17.070;2024-03-17T04:10:59;7.40;77.60
14877;DHT22;69691;48.172;17.070;2024-03-17T04:13:27;7.40;77.80
14877;DHT22;69691;48.172;17.070;2024-03-17T04:15:57;7.40;77.90
14877;DHT22;69691;48.172;17.070;2024-03-17T04:18:25;7.40;77.90
14877;DHT22;69691;48.172;17.070;2024-03-17T04:20:53;7.30;77.90
14877;DHT22;69691;48.172;17.070;2024-03-17T04:23:20;7.30;78.00
14877;DHT22;69691;48.172;17.070;2024-03-17T04:25:47;7.20;78.00
14877;DHT22;69691;48.172;17.070;2024-03-17T04:28:15;7.20;78.20
14877;DHT22;69691;48.172;17.070;2024-03-17T04:30:41;7.20;78.40
14877;DHT22;69691;48.172;17.070;2024-03-17T04:33:14;7.20;78.50
14877;DHT22;69691;48.172;17.070;2024-03-17T04:35:42;7.20;78.50
14877;DHT22;69691;48.172;17.070;2024-03-17T04:38:08;7.10;78.60
14877;DHT22;69691;48.172;17.070;2024-03-17T04:40:39;7.10;78.70
14877;DHT22;69691;48.172;17.070;2024-03-17T04:43:06;7.10;79.60
14877;DHT22;69691;48.172;17.070;2024-03-17T04:45:32;7.00;78.80
14877;DHT22;69691;48.172;17.070;2024-03-17T04:47:58;7.00;78.80
14877;DHT22;69691;48.172;17.070;2024-03-17T04:50:24;7.00;79.00
14877;DHT22;69691;48.172;17.070;2024-03-17T04:52:51;6.90;79.10
14877;DHT22;69691;48.172;17.070;2024-03-17T04:55:17;6.90;79.20
14877;DHT22;69691;48.172;17.070;2024-03-17T04:57:47;6.90;79.20
14877;DHT22;69691;48.172;17.070;2024-03-17T05:00:13;6.90;79.30
14877;DHT22;69691;48.172;17.070;2024-03-17T05:02:40;6.80;79.20
14877;DHT22;69691;48.172;17.070;2024-03-17T05:05:06;6.80;79.40
14877;DHT22;69691;48.172;17.070;2024-03-17T05:07:34;6.80;79.50
14877;DHT22;69691;48.172;17.070;2024-03-17T05:10:00;6.80;80.40
14877;DHT22;69691;48.172;17.070;2024-03-17T05:12:26;6.70;79.80
14877;DHT22;69691;48.172;17.070;2024-03-17T05:14:52;6.70;80.00
14877;DHT22;69691;48.172;17.070;2024-03-17T05:17:18;6.70;80.20
14877;DHT22;69691;48.172;17.070;2024-03-17T05:19:44;6.80;80.20
14877;DHT22;69691;48.172;17.070;2024-03-17T05:22:10;6.90;80.20
14877;DHT22;69691;48.172;17.070;2024-03-17T05:24:36;6.90;79.80
14877;DHT22;69691;48.172;17.070;2024-03-17T05:27:02;6.90;79.80
14877;DHT22;69691;48.172;17.070;2024-03-17T05:29:29;6.90;79.80
14877;DHT22;69691;48.172;17.070;2024-03-17T05:31:55;6.90;79.90
14877;DHT22;69691;48.172;17.070;2024-03-17T05:34:22;6.90;79.90
14877;DHT22;69691;48.172;17.070;2024-03-17T05:36:50;6.90;79.80
14877;DHT22;69691;48.172;17.070;2024-03-17T05:39:16;7.00;79.90
14877;DHT22;69691;48.172;17.070;2024-03-17T05:41:43;6.90;79.90
14877;DHT22;69691;48.172;17.070;2024-03-17T05:44:09;7.00;80.00
14877;DHT22;69691;48.172;17.070;2024-03-17T05:46:35;7.00;80.00
14877;DHT22;69691;48.172;17.070;2024-03-17T05:49:01;7.00;80.00
14877;DHT22;69691;48.172;17.070;2024-03-17T05:51:29;7.10;79.90
14877;DHT22;69691;48.172;17.070;2024-03-17T05:53:55;7.10;79.60
14877;DHT22;69691;48.172;17.070;2024-03-17T05:56:21;7.20;79.40
14877;DHT22;69691;48.172;17.070;2024-03-17T05:58:48;7.20;79.30
14877;DHT22;69691;48.172;17.070;2024-03-17T06:01:14;7.20;79.30
14877;DHT22;69691;48.172;17.070;2024-03-17T06:03:40;7.30;79.30
14877;DHT22;69691;48.172;17.070;2024-03-17T06:06:09;7.30;79.00
14877;DHT22;69691;48.172;17.070;2024-03-17T06:08:38;7.30;78.80
14877;DHT22;69691;48.172;17.070;2024-03-17T06:11:06;7.40;78.90
14877;DHT22;69691;48.172;17.070;2024-03-17T06:13:33;7.50;78.80
14877;DHT22;69691;48.172;17.070;2024-03-17T06:16:02;7.70;78.50
14877;DHT22;69691;48.172;17.070;2024-03-17T06:18:28;7.90;78.00
14877;DHT22;69691;48.172;17.070;2024-03-17T06:20:54;8.10;77.70
14877;DHT22;69691;48.172;17.070;2024-03-17T06:23:24;8.40;77.10
14877;DHT22;69691;48.172;17.070;2024-03-17T06:25:50;8.80;76.20
14877;DHT22;69691;48.172;17.070;2024-03-17T06:28:17;9.10;75.10
14877;DHT22;69691;48.172;17.070;2024-03-17T06:30:44;9.30;74.20
14877;DHT22;69691;48.172;17.070;2024-03-17T06:33:15;9.70;73.40
14877;DHT22;69691;48.172;17.070;2024-03-17T06:35:44;10.00;71.10
14877;DHT22;69691;48.172;17.070;2024-03-17T06:38:10;10.30;69.90
14877;DHT22;69691;48.172;17.070;2024-03-17T06:40:37;10.60;68.90
14877;DHT22;69691;48.172;17.070;2024-03-17T06:43:04;10.80;67.70
14877;DHT22;69691;48.172;17.070;2024-03-17T06:45:30;11.00;66.50
14877;DHT22;69691;48.172;17.070;2024-03-17T06:47:56;11.10;65.70
14877;DHT22;69691;48.172;17.070;2024-03-17T06:50:22;11.10;65.30
14877;DHT22;69691;48.172;17.070;2024-03-17T06:52:48;11.10;64.60
14877;DHT22;69691;48.172;17.070;2024-03-17T06:55:14;11.30;64.60
14877;DHT22;69691;48.172;17.070;2024-03-17T06:57:42;12.00;64.60
14877;DHT22;69691;48.172;17.070;2024-03-17T07:00:12;12.50;62.00
14877;DHT22;69691;48.172;17.070;2024-03-17T07:02:43;12.60;61.10
14877;DHT22;69691;48.172;17.070;2024-03-17T07:05:13;12.40;61.20
14877;DHT22;69691;48.172;17.070;2024-03-17T07:07:43;12.10;60.60
14877;DHT22;69691;48.172;17.070;2024-03-17T07:10:09;11.90;60.50
14877;DHT22;69691;48.172;17.070;2024-03-17T07:12:37;11.60;60.50
14877;DHT22;69691;48.172;17.070;2024-03-17T07:15:05;11.50;60.70
14877;DHT22;69691;48.172;17.070;2024-03-17T07:17:31;11.30;60.70
14877;DHT22;69691;48.172;17.070;2024-03-17T07:19:57;11.20;60.90
14877;DHT22;69691;48.172;17.070;2024-03-17T07:22:23;11.30;61.40
14877;DHT22;69691;48.172;17.070;2024-03-17T07:24:52;11.20;60.50
14877;DHT22;69691;48.172;17.070;2024-03-17T07:27:22;11.20;60.70
14877;DHT22;69691;48.172;17.070;2024-03-17T07:29:48;11.20;60.50
14877;DHT22;69691;48.172;17.070;2024-03-17T07:32:14;11.20;60.40
14877;DHT22;69691;48.172;17.070;2024-03-17T07:34:40;11.10;60.40
14877;DHT22;69691;48.172;17.070;2024-03-17T07:37:06;11.00;60.30
14877;DHT22;69691;48.172;17.070;2024-03-17T07:39:32;10.90;60.30
14877;DHT22;69691;48.172;17.070;2024-03-17T07:42:02;10.80;60.50
14877;DHT22;69691;48.172;17.070;2024-03-17T07:44:30;10.80;60.60
14877;DHT22;69691;48.172;17.070;2024-03-17T07:47:00;10.80;60.60
14877;DHT22;69691;48.172;17.070;2024-03-17T07:49:26;10.80;60.30
14877;DHT22;69691;48.172;17.070;2024-03-17T07:51:52;10.80;60.40
14877;DHT22;69691;48.172;17.070;2024-03-17T07:54:18;10.90;60.40
14877;DHT22;69691;48.172;17.070;2024-03-17T07:56:45;10.90;60.30
14877;DHT22;69691;48.172;17.070;2024-03-17T07:59:12;11.00;60.20
14877;DHT22;69691;48.172;17.070;2024-03-17T08:01:42;11.10;60.10
14877;DHT22;69691;48.172;17.070;2024-03-17T08:04:07;11.20;59.90
14877;DHT22;69691;48.172;17.070;2024-03-17T08:06:33;11.30;59.70
14877;DHT22;69691;48.172;17.070;2024-03-17T08:08:59;11.40;59.30
14877;DHT22;69691;48.172;17.070;2024-03-17T08:11:25;11.30;58.80
14877;DHT22;69691;48.172;17.070;2024-03-17T08:13:51;11.30;58.70
14877;DHT22;69691;48.172;17.070;2024-03-17T08:16:18;11.30;58.30
14877;DHT22;69691;48.172;17.070;2024-03-17T08:18:44;11.30;58.00
14877;DHT22;69691;48.172;17.070;2024-03-17T08:21:10;11.40;57.60
14877;DHT22;69691;48.172;17.070;2024-03-17T08:23:36;11.40;56.90
14877;DHT22;69691;48.172;17.070;2024-03-17T08:26:07;11.40;56.10
14877;DHT22;69691;48.172;17.070;2024-03-17T08:28:33;11.40;55.60
14877;DHT22;69691;48.172;17.070;2024-03-17T08:31:00;11.50;55.20
14877;DHT22;69691;48.172;17.070;2024-03-17T08:33:28;11.60;54.60
14877;DHT22;69691;48.172;17.070;2024-03-17T08:36:02;11.60;54.30
14877;DHT22;69691;48.172;17.070;2024-03-17T08:38:30;11.60;54.10
14877;DHT22;69691;48.172;17.070;2024-03-17T08:41:01;11.80;54.00
14877;DHT22;69691;48.172;17.070;2024-03-17T08:43:33;11.80;53.60
14877;DHT22;69691;48.172;17.070;2024-03-17T08:46:08;11.90;53.50
14877;DHT22;69691;48.172;17.070;2024-03-17T08:48:36;12.00;53.30
14877;DHT22;69691;48.172;17.070;2024-03-17T08:51:04;12.10;53.20
14877;DHT22;69691;48.172;17.070;2024-03-17T08:53:31;12.20;52.80
14877;DHT22;69691;48.172;17.070;2024-03-17T08:55:58;12.20;52.60
14877;DHT22;69691;48.172;17.070;2024-03-17T08:58:25;12.20;52.50
14877;DHT22;69691;48.172;17.070;2024-03-17T09:00:51;12.30;52.80
14877;DHT22;69691;48.172;17.070;2024-03-17T09:03:18;12.30;51.90
14877;DHT22;69691;48.172;17.070;2024-03-17T09:05:45;12.30;51.70
14877;DHT22;69691;48.172;17.070;2024-03-17T09:08:20;12.30;51.30
14877;DHT22;69691;48.172;17.070;2024-03-17T09:10:49;12.20;51.20
14877;DHT22;69691;48.172;17.070;2024-03-17T09:13:18;12.30;51.30
14877;DHT22;69691;48.172;17.070;2024-03-17T09:16:05;12.30;51.10
14877;DHT22;69691;48.172;17.070;2024-03-17T09:18:32;12.30;50.80
14877;DHT22;69691;48.172;17.070;2024-03-17T09:21:02;12.40;51.00
14877;DHT22;69691;48.172;17.070;2024-03-17T09:23:30;12.50;50.80
14877;DHT22;69691;48.172;17.070;2024-03-17T09:25:58;12.50;50.50
14877;DHT22;69691;48.172;17.070;2024-03-17T09:28:35;12.50;50.30
14877;DHT22;69691;48.172;17.070;2024-03-17T09:31:02;12.50;50.30
14877;DHT22;69691;48.172;17.070;2024-03-17T09:33:29;12.50;50.30
14877;DHT22;69691;48.172;17.070;2024-03-17T09:36:02;12.70;50.10
14877;DHT22;69691;48.172;17.070;2024-03-17T09:38:29;13.00;49.80
14877;DHT22;69691;48.172;17.070;2024-03-17T09:40:56;13.50;49.60
14877;DHT22;69691;48.172;17.070;2024-03-17T09:43:32;13.80;49.00
14877;DHT22;69691;48.172;17.070;2024-03-17T09:46:01;14.10;48.50
14877;DHT22;69691;48.172;17.070;2024-03-17T09:48:28;14.40;48.50
14877;DHT22;69691;48.172;17.070;2024-03-17T09:50:59;14.70;47.90
14877;DHT22;69691;48.172;17.070;2024-03-17T09:53:30;15.00;47.60
14877;DHT22;69691;48.172;17.070;2024-03-17T09:56:05;15.20;47.20
14877;DHT22;69691;48.172;17.070;2024-03-17T09:58:34;15.50;47.00
14877;DHT22;69691;48.172;17.070;2024-03-17T10:01:00;15.70;46.50
14877;DHT22;69691;48.172;17.070;2024-03-17T10:06:15;15.90;45.50
14877;DHT22;69691;48.172;17.070;2024-03-17T10:08:42;16.00;45.40
14877;DHT22;69691;48.172;17.070;2024-03-17T10:11:10;15.90;45.10
14877;DHT22;69691;48.172;17.070;2024-03-17T10:13:37;15.70;45.00
14877;DHT22;69691;48.172;17.070;2024-03-17T10:16:03;15.50;45.10
14877;DHT22;69691;48.172;17.070;2024-03-17T10:18:30;15.50;45.00
14877;DHT22;69691;48.172;17.070;2024-03-17T10:20:57;15.50;44.80
14877;DHT22;69691;48.172;17.070;2024-03-17T10:23:24;15.60;44.50
14877;DHT22;69691;48.172;17.070;2024-03-17T10:25:50;15.60;44.30
14877;DHT22;69691;48.172;17.070;2024-03-17T10:28:17;15.70;44.00
14877;DHT22;69691;48.172;17.070;2024-03-17T10:30:59;15.70;43.70
14877;DHT22;69691;48.172;17.070;2024-03-17T10:33:26;15.50;43.50
14877;DHT22;69691;48.172;17.070;2024-03-17T10:36:02;15.20;43.90
14877;DHT22;69691;48.172;17.070;2024-03-17T10:38:31;15.00;44.10
14877;DHT22;69691;48.172;17.070;2024-03-17T10:40:57;14.80;44.50
14877;DHT22;69691;48.172;17.070;2024-03-17T10:43:22;14.50;44.40
14877;DHT22;69691;48.172;17.070;2024-03-17T10:45:54;14.60;44.70
14877;DHT22;69691;48.172;17.070;2024-03-17T10:48:24;15.10;45.10
14877;DHT22;69691;48.172;17.070;2024-03-17T10:50:53;15.40;43.80
14877;DHT22;69691;48.172;17.070;2024-03-17T10:53:22;15.60;43.30
14877;DHT22;69691;48.172;17.070;2024-03-17T10:56:00;15.70;42.90
14877;DHT22;69691;48.172;17.070;2024-03-17T10:58:35;16.00;42.60
14877;DHT22;69691;48.172;17.070;2024-03-17T11:01:02;16.10;42.10
14877;DHT22;69691;48.172;17.070;2024-03-17T11:03:31;16.20;41.90
14877;DHT22;69691;48.172;17.070;2024-03-17T11:05:58;16.20;41.80
14877;DHT22;69691;48.172;17.070;2024-03-17T11:08:26;16.10;41.90
14877;DHT22;69691;48.172;17.070;2024-03-17T11:10:52;16.00;41.90
14877;DHT22;69691;48.172;17.070;2024-03-17T11:13:24;16.00;42.00
14877;DHT22;69691;48.172;17.070;2024-03-17T11:15:52;16.20;42.70
14877;DHT22;69691;48.172;17.070;2024-03-17T11:21:19;16.40;41.70
14877;DHT22;69691;48.172;17.070;2024-03-17T11:24:01;16.50;41.40
14877;DHT22;69691;48.172;17.070;2024-03-17T11:26:33;16.40;41.40
14877;DHT22;69691;48.172;17.070;2024-03-17T11:29:00;16.10;42.30
14877;DHT22;69691;48.172;17.070;2024-03-17T11:31:43;15.90;42.00
14877;DHT22;69691;48.172;17.070;2024-03-17T11:34:33;15.70;41.70
14877;DHT22;69691;48.172;17.070;2024-03-17T11:37:01;15.40;41.80
14877;DHT22;69691;48.172;17.070;2024-03-17T11:39:49;15.20;41.90
14877;DHT22;69691;48.172;17.070;2024-03-17T11:42:22;14.90;42.10
14877;DHT22;69691;48.172;17.070;2024-03-17T11:45:03;14.80;42.40
14877;DHT22;69691;48.172;17.070;2024-03-17T11:47:39;14.60;42.50
14877;DHT22;69691;48.172;17.070;2024-03-17T11:50:08;14.50;42.90
14877;DHT22;69691;48.172;17.070;2024-03-17T11:52:38;14.30;43.30
14877;DHT22;69691;48.172;17.070;2024-03-17T11:55:15;14.20;43.40
14877;DHT22;69691;48.172;17.070;2024-03-17T11:57:43;14.10;43.30
14877;DHT22;69691;48.172;17.070;2024-03-17T12:00:24;13.90;43.50
14877;DHT22;69691;48.172;17.070;2024-03-17T12:02:50;13.90;43.80
14877;DHT22;69691;48.172;17.070;2024-03-17T12:05:16;14.00;43.90
14877;DHT22;69691;48.172;17.070;2024-03-17T12:07:42;14.20;43.70
14877;DHT22;69691;48.172;17.070;2024-03-17T12:10:12;14.30;43.50
14877;DHT22;69691;48.172;17.070;2024-03-17T12:12:47;14.30;43.40
14877;DHT22;69691;48.172;17.070;2024-03-17T12:15:18;14.30;43.40
14877;DHT22;69691;48.172;17.070;2024-03-17T12:17:45;14.20;43.40
14877;DHT22;69691;48.172;17.070;2024-03-17T12:20:18;14.20;43.50
14877;DHT22;69691;48.172;17.070;2024-03-17T12:22:46;14.20;43.50
14877;DHT22;69691;48.172;17.070;2024-03-17T12:25:20;14.20;43.50
14877;DHT22;69691;48.172;17.070;2024-03-17T12:27:46;14.20;43.60
14877;DHT22;69691;48.172;17.070;2024-03-17T12:30:14;14.20;43.60
14877;DHT22;69691;48.172;17.070;2024-03-17T12:32:43;14.30;43.60
14877;DHT22;69691;48.172;17.070;2024-03-17T12:35:14;14.40;43.60
14877;DHT22;69691;48.172;17.070;2024-03-17T12:37:44;14.30;43.40
14877;DHT22;69691;48.172;17.070;2024-03-17T12:40:21;14.30;43.40
14877;DHT22;69691;48.172;17.070;2024-03-17T12:42:48;14.20;43.20
14877;DHT22;69691;48.172;17.070;2024-03-17T12:45:21;14.20;43.30
14877;DHT22;69691;48.172;17.070;2024-03-17T12:47:49;14.30;43.40
14877;DHT22;69691;48.172;17.070;2024-03-17T12:50:16;14.30;43.80
14877;DHT22;69691;48.172;17.070;2024-03-17T12:52:52;14.40;43.20
14877;DHT22;69691;48.172;17.070;2024-03-17T12:55:20;14.50;43.70
14877;DHT22;69691;48.172;17.070;2024-03-17T12:58:05;14.50;43.10
14877;DHT22;69691;48.172;17.070;2024-03-17T13:01:03;14.30;43.10
14877;DHT22;69691;48.172;17.070;2024-03-17T13:03:34;14.10;43.20
14877;DHT22;69691;48.172;17.070;2024-03-17T13:06:01;13.90;43.40
14877;DHT22;69691;48.172;17.070;2024-03-17T13:08:32;13.70;43.50
14877;DHT22;69691;48.172;17.070;2024-03-17T13:11:01;13.60;43.80
14877;DHT22;69691;48.172;17.070;2024-03-17T13:13:31;13.50;44.10
14877;DHT22;69691;48.172;17.070;2024-03-17T13:15:57;13.40;44.20
14877;DHT22;69691;48.172;17.070;2024-03-17T13:18:24;13.30;44.30
14877;DHT22;69691;48.172;17.070;2024-03-17T13:20:50;13.40;44.50
14877;DHT22;69691;48.172;17.070;2024-03-17T13:23:17;13.50;44.50
14877;DHT22;69691;48.172;17.070;2024-03-17T13:25:43;13.60;44.30
14877;DHT22;69691;48.172;17.070;2024-03-17T13:28:10;13.60;44.00
14877;DHT22;69691;48.172;17.070;2024-03-17T13:30:37;13.70;43.90
14877;DHT22;69691;48.172;17.070;2024-03-17T13:33:03;13.80;43.70
14877;DHT22;69691;48.172;17.070;2024-03-17T13:35:37;13.90;43.40
14877;DHT22;69691;48.172;17.070;2024-03-17T13:38:08;14.00;43.50
14877;DHT22;69691;48.172;17.070;2024-03-17T13:40:36;14.00;43.40
14877;DHT22;69691;48.172;17.070;2024-03-17T13:43:03;14.00;44.00
14877;DHT22;69691;48.172;17.070;2024-03-17T13:45:34;14.10;43.60
14877;DHT22;69691;48.172;17.070;2024-03-17T13:48:05;14.10;43.70
14877;DHT22;69691;48.172;17.070;2024-03-17T13:50:31;14.00;43.70
14877;DHT22;69691;48.172;17.070;2024-03-17T13:52:57;14.00;43.80
14877;DHT22;69691;48.172;17.070;2024-03-17T13:55:25;13.90;43.90
14877;DHT22;69691;48.172;17.070;2024-03-17T13:57:53;13.80;44.00
14877;DHT22;69691;48.172;17.070;2024-03-17T14:00:22;13.70;44.10
14877;DHT22;69691;48.172;17.070;2024-03-17T14:02:49;13.70;44.30
14877;DHT22;69691;48.172;17.070;2024-03-17T14:05:18;13.70;44.20
14877;DHT22;69691;48.172;17.070;2024-03-17T14:07:48;13.80;44.20
14877;DHT22;69691;48.172;17.070;2024-03-17T14:10:17;13.80;44.20
14877;DHT22;69691;48.172;17.070;2024-03-17T14:12:43;13.80;44.20
14877;DHT22;69691;48.172;17.070;2024-03-17T14:15:11;13.90;44.10
14877;DHT22;69691;48.172;17.070;2024-03-17T14:17:42;13.90;44.10
14877;DHT22;69691;48.172;17.070;2024-03-17T14:20:09;13.90;44.10
14877;DHT22;69691;48.172;17.070;2024-03-17T14:22:43;14.00;44.10
14877;DHT22;69691;48.172;17.070;2024-03-17T14:25:16;14.00;44.10
14877;DHT22;69691;48.172;17.070;2024-03-17T14:27:47;13.90;44.20
14877;DHT22;69691;48.172;17.070;2024-03-17T14:30:16;13.90;44.20
14877;DHT22;69691;48.172;17.070;2024-03-17T14:32:43;13.90;44.30
14877;DHT22;69691;48.172;17.070;2024-03-17T14:35:13;14.00;44.50
14877;DHT22;69691;48.172;17.070;2024-03-17T14:37:41;13.90;44.40
14877;DHT22;69691;48.172;17.070;2024-03-17T14:40:09;13.80;44.40
14877;DHT22;69691;48.172;17.070;2024-03-17T14:42:43;13.80;44.50
14877;DHT22;69691;48.172;17.070;2024-03-17T14:45:09;13.80;44.50
14877;DHT22;69691;48.172;17.070;2024-03-17T14:47:36;13.80;44.40
14877;DHT22;69691;48.172;17.070;2024-03-17T14:50:02;13.80;44.30
14877;DHT22;69691;48.172;17.070;2024-03-17T14:52:28;13.80;44.30
14877;DHT22;69691;48.172;17.070;2024-03-17T14:54:54;13.70;44.40
14877;DHT22;69691;48.172;17.070;2024-03-17T14:57:22;13.60;44.50
14877;DHT22;69691;48.172;17.070;2024-03-17T14:59:48;13.50;44.60
14877;DHT22;69691;48.172;17.070;2024-03-17T15:02:14;13.50;44.70
14877;DHT22;69691;48.172;17.070;2024-03-17T15:04:41;13.50;44.80
14877;DHT22;69691;48.172;17.070;2024-03-17T15:07:06;13.40;44.80
14877;DHT22;69691;48.172;17.070;2024-03-17T15:09:34;13.40;45.00
14877;DHT22;69691;48.172;17.070;2024-03-17T15:12:00;13.40;45.00
14877;DHT22;69691;48.172;17.070;2024-03-17T15:14:28;13.40;45.00
14877;DHT22;69691;48.172;17.070;2024-03-17T15:16:54;13.40;45.10
14877;DHT22;69691;48.172;17.070;2024-03-17T15:19:20;13.30;45.10
14877;DHT22;69691;48.172;17.070;2024-03-17T15:21:46;13.40;45.20
14877;DHT22;69691;48.172;17.070;2024-03-17T15:24:11;13.40;45.20
14877;DHT22;69691;48.172;17.070;2024-03-17T15:26:38;13.30;45.30
14877;DHT22;69691;48.172;17.070;2024-03-17T15:29:04;13.30;45.30
14877;DHT22;69691;48.172;17.070;2024-03-17T15:31:30;13.30;45.30
14877;DHT22;69691;48.172;17.070;2024-03-17T15:33:56;13.30;45.40
14877;DHT22;69691;48.172;17.070;2024-03-17T15:36:23;13.20;45.40
14877;DHT22;69691;48.172;17.070;2024-03-17T15:38:51;13.20;45.50